Time;durP1;ratioP1;P1;durP2;ratioP2;P2;SDS_P1;SDS_P2;PMS_P1;PMS_P2;Temp;Humidity;BMP_temperature;BMP_pressure;BME280_temperature;BME280_humidity;BME280_pressure;Samples;Min_cycle;Max_cycle;Signal;HPM_P1;HPM_P2
2022/07/25 00:00:57;;;;;;;7.00;6.03;;;25.50;99.90;;;;;;7385346;19;20150;-79
2022/07/25 00:03:23;;;;;;;6.63;5.90;;;25.50;99.90;;;;;;7386113;19;20139;-78
2022/07/25 00:05:49;;;;;;;5.95;5.45;;;25.50;99.90;;;;;;7387122;19;20166;-75
2022/07/25 00:08:14;;;;;;;7.03;6.32;;;25.70;99.90;;;;;;7386630;19;20155;-79
2022/07/25 00:10:40;;;;;;;7.07;6.30;;;25.80;99.90;;;;;;7387400;19;20138;-78
2022/07/25 00:13:06;;;;;;;6.63;5.95;;;25.80;99.90;;;;;;7389341;19;20659;-78
2022/07/25 00:15:32;;;;;;;7.20;6.00;;;26.00;99.90;;;;;;7398107;19;20139;-79
2022/07/25 00:17:57;;;;;;;7.82;6.05;;;25.60;99.90;;;;;;7391187;19;20135;-79
2022/07/25 00:20:23;;;;;;;5.95;5.15;;;25.50;99.90;;;;;;7387145;19;20163;-78
2022/07/25 00:22:49;;;;;;;6.22;5.63;;;25.20;99.90;;;;;;7390735;19;20468;-77
2022/07/25 00:25:15;;;;;;;6.50;5.32;;;25.00;99.90;;;;;;7394953;19;20139;-77
2022/07/25 00:27:41;;;;;;;6.28;5.68;;;24.90;99.90;;;;;;7387574;19;20146;-78
2022/07/25 00:30:07;;;;;;;6.78;5.93;;;24.90;99.90;;;;;;7391716;19;20161;-78
2022/07/25 00:32:33;;;;;;;7.72;5.82;;;25.00;99.90;;;;;;7389713;19;20171;-77
2022/07/25 00:34:59;;;;;;;6.40;5.80;;;24.90;99.90;;;;;;7392486;19;20143;-79
2022/07/25 00:37:25;;;;;;;7.30;6.60;;;25.00;99.90;;;;;;7394146;19;20146;-78
2022/07/25 00:39:51;;;;;;;7.15;6.05;;;25.00;99.90;;;;;;7394887;19;20198;-78
2022/07/25 00:42:17;;;;;;;6.80;6.10;;;24.80;99.90;;;;;;7391298;19;20138;-79
2022/07/25 00:44:42;;;;;;;7.05;6.30;;;24.70;99.90;;;;;;7389896;19;20472;-78
2022/07/25 00:47:08;;;;;;;7.93;6.72;;;24.60;99.90;;;;;;7391582;19;20597;-78
2022/07/25 00:49:34;;;;;;;7.15;6.38;;;24.70;99.90;;;;;;7393816;19;20507;-78
2022/07/25 00:52:00;;;;;;;7.20;6.28;;;24.70;99.90;;;;;;7390864;19;20617;-78
2022/07/25 00:54:26;;;;;;;7.57;6.72;;;24.60;99.90;;;;;;7392462;19;20151;-78
2022/07/25 00:56:52;;;;;;;7.40;5.70;;;25.10;99.90;;;;;;7389594;19;20141;-78
2022/07/25 00:59:18;;;;;;;6.75;6.05;;;25.40;99.90;;;;;;7392997;19;20142;-78
2022/07/25 01:01:46;;;;;;;7.13;6.43;;;25.30;99.90;;;;;;7394337;19;20560;-79
2022/07/25 01:04:13;;;;;;;6.82;6.10;;;25.20;99.90;;;;;;7390898;19;20226;-75
2022/07/25 01:06:38;;;;;;;6.75;6.05;;;25.10;99.90;;;;;;7391199;19;20582;-77
2022/07/25 01:09:04;;;;;;;8.50;6.20;;;25.00;99.90;;;;;;7387436;19;20134;-77
2022/07/25 01:11:30;;;;;;;7.65;6.20;;;24.70;99.90;;;;;;7395320;19;20630;-76
2022/07/25 01:13:56;;;;;;;10.20;6.43;;;24.60;99.90;;;;;;7388433;19;20145;-74
2022/07/25 01:16:22;;;;;;;7.05;6.32;;;24.80;99.90;;;;;;7392934;19;20202;-78
2022/07/25 01:18:47;;;;;;;6.93;5.90;;;25.00;99.90;;;;;;7387841;19;20137;-75
2022/07/25 01:21:13;;;;;;;7.18;6.07;;;25.00;99.90;;;;;;7389363;19;20529;-78
2022/07/25 01:23:40;;;;;;;6.95;5.88;;;24.90;99.90;;;;;;7389359;19;20151;-79
2022/07/25 01:26:06;;;;;;;7.63;6.05;;;24.70;99.90;;;;;;7391493;19;20146;-79
2022/07/25 01:28:31;;;;;;;6.63;5.68;;;24.80;99.90;;;;;;7391617;19;20584;-75
2022/07/25 01:30:57;;;;;;;6.13;5.53;;;25.00;99.90;;;;;;7392173;19;20134;-78
2022/07/25 01:33:23;;;;;;;10.75;5.97;;;24.90;99.90;;;;;;7390477;19;20486;-77
2022/07/25 01:35:49;;;;;;;6.60;5.95;;;24.90;99.90;;;;;;7388790;19;20138;-76
2022/07/25 01:38:16;;;;;;;6.88;6.18;;;25.00;99.90;;;;;;7389599;19;20142;-78
2022/07/25 01:40:42;;;;;;;7.15;5.85;;;25.10;99.90;;;;;;7387959;19;20206;-77
2022/07/25 01:43:08;;;;;;;6.60;6.00;;;25.10;99.90;;;;;;7392319;19;20130;-78
2022/07/25 01:45:35;;;;;;;6.70;5.93;;;25.20;99.90;;;;;;7394525;19;20151;-78
2022/07/25 01:48:00;;;;;;;8.07;6.40;;;25.20;99.90;;;;;;7387216;19;20143;-78
2022/07/25 01:50:26;;;;;;;6.53;5.93;;;25.20;99.90;;;;;;7386988;19;20131;-78
2022/07/25 01:52:52;;;;;;;6.43;5.82;;;25.00;99.90;;;;;;7393296;19;20127;-78
2022/07/25 01:55:18;;;;;;;7.38;6.32;;;24.80;99.90;;;;;;7387426;19;20123;-78
2022/07/25 01:57:44;;;;;;;7.00;6.30;;;24.50;99.90;;;;;;7387579;19;20141;-78
2022/07/25 02:00:12;;;;;;;6.88;6.13;;;24.20;99.90;;;;;;7386471;19;20135;-75
2022/07/25 02:02:39;;;;;;;7.25;6.35;;;24.40;99.90;;;;;;7388652;19;20142;-79
2022/07/25 02:05:07;;;;;;;6.53;5.80;;;24.70;99.90;;;;;;7391251;19;20137;-78
2022/07/25 02:07:33;;;;;;;7.35;6.45;;;24.90;99.90;;;;;;7389911;19;20566;-76
2022/07/25 02:09:59;;;;;;;7.00;6.15;;;25.00;99.90;;;;;;7390895;19;20141;-79
2022/07/25 02:12:24;;;;;;;7.57;6.78;;;24.90;99.90;;;;;;7389354;19;20544;-78
2022/07/25 02:14:50;;;;;;;7.30;6.40;;;25.00;99.90;;;;;;7393484;19;20138;-77
2022/07/25 02:17:16;;;;;;;7.05;6.35;;;25.10;99.90;;;;;;7387875;19;20142;-78
2022/07/25 02:19:42;;;;;;;7.03;6.35;;;25.30;99.90;;;;;;7391702;19;20141;-78
2022/07/25 02:22:08;;;;;;;6.80;6.10;;;25.10;99.90;;;;;;7387353;19;20178;-77
2022/07/25 02:24:35;;;;;;;6.97;6.05;;;25.00;99.90;;;;;;7389532;19;20473;-72
2022/07/25 02:27:02;;;;;;;7.72;6.32;;;24.70;99.90;;;;;;7388329;19;20155;-70
2022/07/25 02:29:28;;;;;;;7.75;6.88;;;24.40;99.90;;;;;;7381653;19;20614;-72
2022/07/25 02:31:54;;;;;;;7.35;6.60;;;24.10;99.90;;;;;;7388879;19;20139;-73
2022/07/25 02:34:19;;;;;;;9.52;6.85;;;24.10;99.90;;;;;;7387668;19;20158;-72
2022/07/25 02:36:45;;;;;;;9.20;7.05;;;24.20;99.90;;;;;;7390150;19;20138;-72
2022/07/25 02:39:11;;;;;;;8.13;6.70;;;23.90;99.90;;;;;;7388913;19;20138;-73
2022/07/25 02:41:37;;;;;;;9.13;7.05;;;23.90;99.90;;;;;;7389427;19;20127;-71
2022/07/25 02:44:05;;;;;;;7.85;6.53;;;24.00;99.90;;;;;;7388471;19;20202;-75
2022/07/25 02:46:31;;;;;;;8.07;7.15;;;23.80;99.90;;;;;;7389294;19;20138;-72
2022/07/25 02:48:57;;;;;;;8.93;7.22;;;23.80;99.90;;;;;;7387003;19;20164;-78
2022/07/25 02:51:24;;;;;;;7.45;6.35;;;23.70;99.90;;;;;;7385698;19;20135;-79
2022/07/25 02:53:49;;;;;;;7.70;6.57;;;23.70;99.90;;;;;;7389165;19;20143;-78
2022/07/25 02:56:15;;;;;;;8.35;6.88;;;23.90;99.90;;;;;;7387187;19;20238;-78
2022/07/25 02:58:41;;;;;;;8.50;6.57;;;24.10;99.90;;;;;;7387958;19;20141;-79
2022/07/25 03:01:07;;;;;;;7.93;6.57;;;24.00;99.90;;;;;;7384718;19;20131;-79
2022/07/25 03:03:37;;;;;;;8.25;6.30;;;24.30;99.90;;;;;;7384572;19;23589;-78
2022/07/25 03:06:03;;;;;;;7.55;6.30;;;24.50;99.90;;;;;;7388805;19;20137;-78
2022/07/25 03:08:29;;;;;;;7.25;6.38;;;24.40;99.90;;;;;;7385139;19;20139;-78
2022/07/25 03:10:55;;;;;;;7.43;6.72;;;24.30;99.90;;;;;;7387916;19;20147;-78
2022/07/25 03:13:21;;;;;;;11.02;6.80;;;24.20;99.90;;;;;;7389364;19;20620;-77
2022/07/25 03:15:46;;;;;;;7.00;6.20;;;24.30;99.90;;;;;;7384661;19;20146;-76
2022/07/25 03:18:12;;;;;;;7.25;6.47;;;24.40;99.90;;;;;;7389503;19;20149;-77
2022/07/25 03:20:38;;;;;;;8.57;6.20;;;24.20;99.90;;;;;;7383558;19;20153;-77
2022/07/25 03:23:04;;;;;;;8.00;6.50;;;24.40;99.90;;;;;;7387069;19;20218;-78
2022/07/25 03:25:29;;;;;;;6.53;5.93;;;24.60;99.90;;;;;;7384578;19;20139;-79
2022/07/25 03:27:55;;;;;;;7.28;5.90;;;24.50;99.90;;;;;;7383629;19;20130;-78
2022/07/25 03:30:21;;;;;;;7.18;5.38;;;24.50;99.90;;;;;;7379617;19;20133;-78
2022/07/25 03:32:48;;;;;;;6.78;5.60;;;24.50;99.90;;;;;;7385190;19;20129;-78
2022/07/25 03:35:14;;;;;;;7.07;6.32;;;24.30;99.90;;;;;;7384082;19;20130;-78
2022/07/25 03:37:40;;;;;;;6.28;5.63;;;24.40;99.90;;;;;;7387075;19;20141;-78
2022/07/25 03:40:07;;;;;;;6.38;5.78;;;24.20;99.90;;;;;;7384874;19;20681;-79
2022/07/25 03:42:32;;;;;;;6.05;5.45;;;24.00;99.90;;;;;;7384270;19;20127;-79
2022/07/25 03:44:58;;;;;;;6.50;5.90;;;23.90;99.90;;;;;;7388330;19;20131;-78
2022/07/25 03:47:24;;;;;;;6.90;5.97;;;23.70;99.90;;;;;;7395700;19;20217;-78
2022/07/25 03:49:50;;;;;;;5.85;5.25;;;23.80;99.90;;;;;;7390572;19;20161;-78
2022/07/25 03:52:15;;;;;;;6.68;5.75;;;23.60;99.90;;;;;;7391594;19;20198;-78
2022/07/25 03:54:41;;;;;;;6.20;5.60;;;23.60;99.90;;;;;;7396726;19;20155;-78
2022/07/25 03:57:07;;;;;;;6.75;6.05;;;23.60;99.90;;;;;;7393068;19;20130;-79
2022/07/25 03:59:33;;;;;;;6.40;5.80;;;23.80;99.90;;;;;;7391523;19;20141;-79
2022/07/25 04:01:58;;;;;;;7.60;5.70;;;23.90;99.90;;;;;;7391253;19;20127;-79
2022/07/25 04:04:24;;;;;;;7.82;6.35;;;23.80;99.90;;;;;;7394170;19;20157;-79
2022/07/25 04:06:50;;;;;;;7.85;5.97;;;24.10;99.90;;;;;;7391710;19;20130;-78
2022/07/25 04:09:16;;;;;;;7.05;6.25;;;24.30;99.90;;;;;;7394939;19;20609;-78
2022/07/25 04:11:42;;;;;;;7.13;6.43;;;24.30;99.90;;;;;;7390393;19;20122;-78
2022/07/25 04:14:08;;;;;;;7.18;6.43;;;24.20;99.90;;;;;;7391704;19;20146;-77
2022/07/25 04:16:34;;;;;;;6.72;5.80;;;24.10;99.90;;;;;;7392491;19;20139;-77
2022/07/25 04:19:00;;;;;;;6.28;5.65;;;23.90;99.90;;;;;;7392170;19;20148;-77
2022/07/25 04:21:25;;;;;;;6.85;5.68;;;24.00;99.90;;;;;;7389997;19;20592;-76
2022/07/25 04:23:51;;;;;;;6.00;5.38;;;23.90;99.90;;;;;;7390499;19;20477;-77
2022/07/25 04:26:18;;;;;;;6.63;5.93;;;23.80;99.90;;;;;;7391988;19;20655;-77
2022/07/25 04:28:44;;;;;;;6.70;5.65;;;23.70;99.90;;;;;;7391139;19;20481;-75
2022/07/25 04:31:09;;;;;;;7.72;6.25;;;23.70;99.90;;;;;;7393215;19;20134;-77
2022/07/25 04:33:36;;;;;;;6.65;5.95;;;23.70;99.90;;;;;;7394338;19;20142;-77
2022/07/25 04:36:02;;;;;;;6.25;5.65;;;24.00;99.90;;;;;;7390535;19;20149;-77
2022/07/25 04:38:28;;;;;;;6.80;6.10;;;24.10;99.90;;;;;;7392606;19;20146;-77
2022/07/25 04:40:54;;;;;;;7.13;5.72;;;24.20;99.90;;;;;;7393623;19;20761;-78
2022/07/25 04:43:20;;;;;;;6.40;5.65;;;24.20;99.90;;;;;;7389067;19;20142;-78
2022/07/25 04:45:46;;;;;;;6.25;5.63;;;24.10;99.90;;;;;;7389842;19;20143;-79
2022/07/25 04:48:12;;;;;;;6.40;5.70;;;24.10;99.90;;;;;;7392013;19;20146;-79
2022/07/25 04:50:38;;;;;;;7.55;6.30;;;24.20;99.90;;;;;;7391158;19;20267;-80
2022/07/25 04:53:04;;;;;;;6.32;5.38;;;24.00;99.90;;;;;;7394751;19;20139;-78
2022/07/25 04:55:31;;;;;;;7.07;6.38;;;23.90;99.90;;;;;;7389772;19;20147;-78
2022/07/25 04:57:58;;;;;;;7.32;6.13;;;24.10;99.90;;;;;;7393005;19;20166;-78
2022/07/25 05:00:24;;;;;;;7.85;6.13;;;24.30;99.90;;;;;;7387527;19;20134;-78
2022/07/25 05:02:50;;;;;;;6.78;6.15;;;24.40;99.90;;;;;;7394007;19;20219;-78
2022/07/25 05:05:17;;;;;;;10.65;7.97;;;24.50;99.90;;;;;;7394293;19;20146;-76
2022/07/25 05:07:43;;;;;;;12.95;9.05;;;24.60;99.90;;;;;;7390783;19;20615;-75
2022/07/25 05:10:09;;;;;;;8.25;6.82;;;24.50;99.90;;;;;;7392497;19;20142;-75
2022/07/25 05:12:35;;;;;;;6.43;5.65;;;24.50;99.90;;;;;;7389411;19;20139;-76
2022/07/25 05:15:01;;;;;;;7.40;6.13;;;24.50;99.90;;;;;;7388285;19;20752;-76
2022/07/25 05:17:27;;;;;;;7.95;6.05;;;24.50;99.90;;;;;;7390186;19;20213;-76
2022/07/25 05:19:53;;;;;;;6.82;6.13;;;24.50;99.90;;;;;;7388877;19;20177;-76
2022/07/25 05:22:19;;;;;;;6.97;6.30;;;24.60;99.90;;;;;;7385122;19;20234;-74
2022/07/25 05:24:45;;;;;;;6.55;5.85;;;24.40;99.90;;;;;;7391102;19;20180;-77
2022/07/25 05:27:10;;;;;;;7.50;5.78;;;24.20;99.90;;;;;;7387660;19;20154;-76
2022/07/25 05:29:36;;;;;;;8.30;5.88;;;24.10;99.90;;;;;;7389700;19;20170;-77
2022/07/25 05:32:02;;;;;;;7.47;5.82;;;24.00;99.90;;;;;;7389680;19;20154;-74
2022/07/25 05:34:28;;;;;;;6.47;5.38;;;24.00;99.90;;;;;;7386758;19;20138;-74
2022/07/25 05:36:55;;;;;;;6.68;6.00;;;24.00;99.90;;;;;;7392614;19;20142;-74
2022/07/25 05:39:21;;;;;;;8.13;5.93;;;24.10;99.90;;;;;;7392530;19;20125;-73
2022/07/25 05:41:46;;;;;;;6.38;5.57;;;24.20;99.90;;;;;;7392543;19;20134;-73
2022/07/25 05:44:12;;;;;;;7.40;6.10;;;24.40;99.90;;;;;;7390355;19;20147;-74
2022/07/25 05:46:38;;;;;;;8.00;6.30;;;24.60;99.90;;;;;;7387531;19;20148;-73
2022/07/25 05:49:04;;;;;;;9.32;6.70;;;24.90;99.90;;;;;;7387297;19;20135;-74
2022/07/25 05:51:29;;;;;;;9.05;7.15;;;25.00;99.90;;;;;;7388134;19;20134;-73
2022/07/25 05:53:55;;;;;;;9.98;6.85;;;24.90;99.90;;;;;;7389368;19;20276;-74
2022/07/25 05:56:21;;;;;;;8.20;7.20;;;25.00;99.90;;;;;;7391538;19;20126;-74
2022/07/25 05:58:47;;;;;;;9.27;7.30;;;25.00;99.90;;;;;;7382498;19;20167;-73
2022/07/25 06:01:14;;;;;;;8.55;7.60;;;25.00;99.90;;;;;;7391876;19;20137;-73
2022/07/25 06:03:40;;;;;;;10.95;7.20;;;25.00;99.90;;;;;;7389332;19;20556;-74
2022/07/25 06:06:10;;;;;;;8.07;7.20;;;25.10;99.90;;;;;;7386182;19;20154;-74
2022/07/25 06:08:37;;;;;;;8.60;7.57;;;25.10;99.90;;;;;;7387059;19;20126;-75
2022/07/25 06:11:04;;;;;;;14.18;12.15;;;25.10;99.90;;;;;;7387021;19;20254;-75
2022/07/25 06:13:31;;;;;;;8.35;7.18;;;25.00;99.90;;;;;;7388022;19;20202;-73
2022/07/25 06:15:57;;;;;;;10.30;7.57;;;24.90;99.90;;;;;;7385917;19;20142;-74
2022/07/25 06:18:23;;;;;;;9.15;7.25;;;24.90;99.90;;;;;;7390635;19;20227;-74
2022/07/25 06:20:49;;;;;;;9.27;6.63;;;25.10;99.90;;;;;;7384828;19;20182;-74
2022/07/25 06:23:16;;;;;;;9.10;7.07;;;25.40;99.90;;;;;;7390756;19;20154;-74
2022/07/25 06:25:42;;;;;;;8.45;7.00;;;25.50;99.90;;;;;;7388859;19;20183;-74
2022/07/25 06:28:08;;;;;;;7.80;7.00;;;25.80;99.90;;;;;;7386493;19;20135;-74
2022/07/25 06:30:34;;;;;;;8.95;6.88;;;26.40;99.90;;;;;;7389120;19;20588;-74
2022/07/25 06:33:00;;;;;;;9.48;6.78;;;27.20;99.90;;;;;;7387344;19;20672;-76
2022/07/25 06:35:26;;;;;;;8.27;6.90;;;28.00;99.90;;;;;;7391407;19;20202;-75
2022/07/25 06:37:51;;;;;;;7.57;6.78;;;28.80;99.90;;;;;;7388291;19;20135;-75
2022/07/25 06:40:17;;;;;;;8.52;7.38;;;29.30;99.90;;;;;;7389725;19;20554;-74
2022/07/25 06:42:45;;;;;;;12.07;6.50;;;29.70;99.90;;;;;;7386201;19;20139;-74
2022/07/25 06:45:11;;;;;;;8.95;7.00;;;30.00;99.90;;;;;;7386077;19;20143;-74
2022/07/25 06:47:38;;;;;;;7.97;6.50;;;30.10;99.90;;;;;;7388569;19;20139;-74
2022/07/25 06:50:10;;;;;;;8.80;6.75;;;30.10;99.90;;;;;;7383878;19;20138;-74
2022/07/25 06:52:36;;;;;;;7.47;6.78;;;30.20;99.60;;;;;;7387498;19;20158;-74
2022/07/25 06:55:03;;;;;;;7.40;6.53;;;30.30;99.20;;;;;;7386341;19;20161;-74
2022/07/25 06:57:29;;;;;;;8.98;6.85;;;30.30;99.20;;;;;;7388834;19;20131;-74
2022/07/25 06:59:55;;;;;;;7.18;6.47;;;30.40;99.00;;;;;;7385079;19;20206;-75
2022/07/25 07:02:22;;;;;;;7.27;6.40;;;30.50;98.70;;;;;;7382574;19;20367;-75
2022/07/25 07:04:48;;;;;;;7.43;6.13;;;30.80;98.40;;;;;;7385788;19;20627;-75
2022/07/25 07:07:16;;;;;;;7.05;6.35;;;31.10;97.80;;;;;;7390269;19;20131;-75
2022/07/25 07:09:43;;;;;;;10.65;6.75;;;31.40;97.30;;;;;;7387263;19;20503;-75
2022/07/25 07:12:09;;;;;;;6.55;5.88;;;31.70;96.80;;;;;;7390008;19;20133;-74
2022/07/25 07:14:36;;;;;;;7.80;6.47;;;31.80;96.00;;;;;;7385423;19;20134;-74
2022/07/25 07:17:03;;;;;;;8.63;7.07;;;31.90;95.60;;;;;;7389075;19;20202;-74
2022/07/25 07:19:29;;;;;;;7.60;6.80;;;32.30;95.60;;;;;;7389481;19;20127;-74
2022/07/25 07:21:55;;;;;;;7.40;6.45;;;32.60;94.50;;;;;;7387876;19;20184;-74
2022/07/25 07:24:21;;;;;;;7.57;6.10;;;32.90;94.10;;;;;;7385602;19;20145;-75
2022/07/25 07:26:47;;;;;;;7.22;5.60;;;33.10;93.60;;;;;;7387032;19;20150;-75
2022/07/25 07:29:12;;;;;;;5.80;5.13;;;33.20;92.90;;;;;;7381171;19;20828;-75
2022/07/25 07:31:38;;;;;;;7.30;6.00;;;33.20;92.60;;;;;;7382422;19;20387;-74
2022/07/25 07:34:04;;;;;;;6.65;6.03;;;33.50;92.70;;;;;;7387846;19;20263;-75
2022/07/25 07:36:30;;;;;;;7.65;5.80;;;33.80;92.20;;;;;;7384359;19;20147;-74
2022/07/25 07:38:55;;;;;;;9.63;8.07;;;33.60;91.90;;;;;;7389026;19;20134;-74
2022/07/25 07:41:21;;;;;;;6.97;6.03;;;34.00;91.70;;;;;;7387383;19;20164;-75
2022/07/25 07:43:47;;;;;;;6.85;6.15;;;34.60;91.10;;;;;;7387147;19;20480;-74
2022/07/25 07:46:13;;;;;;;6.53;5.93;;;35.00;90.50;;;;;;7385573;19;20139;-74
2022/07/25 07:48:38;;;;;;;7.20;6.50;;;35.20;90.10;;;;;;7383964;19;20130;-76
2022/07/25 07:51:04;;;;;;;6.68;6.05;;;35.40;89.30;;;;;;7387116;19;20182;-73
2022/07/25 07:56:17;;;;;;;9.45;8.55;;;36.00;87.10;;;;;;7388159;19;20138;-75
2022/07/25 07:58:44;;;;;;;6.85;6.13;;;36.10;86.40;;;;;;7385907;19;20398;-75
2022/07/25 08:01:10;;;;;;;6.38;5.78;;;36.00;86.00;;;;;;7383422;19;20150;-74
2022/07/25 08:03:36;;;;;;;6.15;5.65;;;36.10;85.60;;;;;;7382932;19;20210;-75
2022/07/25 08:06:03;;;;;;;7.63;5.97;;;36.40;84.80;;;;;;7386102;19;20576;-75
2022/07/25 08:08:29;;;;;;;6.50;5.80;;;36.50;84.40;;;;;;7385423;19;20149;-75
2022/07/25 08:10:55;;;;;;;5.97;5.38;;;36.60;84.10;;;;;;7385802;19;20629;-75
2022/07/25 08:13:25;;;;;;;6.93;6.20;;;36.60;83.60;;;;;;7401525;19;20153;-75
2022/07/25 08:15:54;;;;;;;6.78;6.18;;;36.70;83.30;;;;;;7383626;19;20162;-74
2022/07/25 08:18:20;;;;;;;6.22;5.63;;;36.70;82.60;;;;;;7383754;19;20141;-75
2022/07/25 08:20:47;;;;;;;11.18;8.23;;;36.80;81.90;;;;;;7385008;19;20159;-75
2022/07/25 08:23:13;;;;;;;12.13;8.85;;;37.00;81.50;;;;;;7386141;19;20151;-74
2022/07/25 08:25:39;;;;;;;6.82;6.22;;;37.20;81.50;;;;;;7387864;19;20172;-74
2022/07/25 08:28:05;;;;;;;5.72;5.15;;;37.40;80.30;;;;;;7387732;19;20556;-74
2022/07/25 08:30:32;;;;;;;5.72;5.22;;;37.50;79.80;;;;;;7387050;19;20147;-74
2022/07/25 08:33:02;;;;;;;7.82;7.05;;;37.70;78.40;;;;;;7390461;19;20142;-76
2022/07/25 08:35:30;;;;;;;6.63;6.03;;;37.60;78.50;;;;;;7393201;19;20218;-75
2022/07/25 08:37:56;;;;;;;6.80;6.00;;;37.60;78.30;;;;;;7395849;19;20617;-75
2022/07/25 08:40:24;;;;;;;6.32;5.70;;;37.70;77.40;;;;;;7392927;19;20142;-74
2022/07/25 08:42:50;;;;;;;6.57;5.95;;;37.40;77.90;;;;;;7396277;19;20130;-76
2022/07/25 08:45:18;;;;;;;6.85;6.25;;;37.40;76.80;;;;;;7391408;19;20455;-73
2022/07/25 08:47:49;;;;;;;7.05;6.43;;;37.50;76.90;;;;;;7392038;19;20541;-73
2022/07/25 08:50:17;;;;;;;5.93;5.38;;;37.60;76.50;;;;;;7390624;19;20298;-73
2022/07/25 08:52:46;;;;;;;6.22;5.63;;;37.50;75.90;;;;;;7393385;19;20449;-75
2022/07/25 08:55:14;;;;;;;7.47;5.35;;;37.40;75.60;;;;;;7392785;19;20209;-74
2022/07/25 08:57:45;;;;;;;6.57;5.90;;;37.40;75.70;;;;;;7392687;19;20155;-74
2022/07/25 09:00:14;;;;;;;6.80;5.80;;;36.90;75.90;;;;;;7391508;19;20143;-75
2022/07/25 09:02:40;;;;;;;6.10;5.50;;;36.20;77.30;;;;;;7394304;19;20150;-75
2022/07/25 09:05:07;;;;;;;6.25;5.65;;;35.80;78.10;;;;;;7393581;19;20149;-75
2022/07/25 09:07:36;;;;;;;6.10;5.47;;;35.80;77.20;;;;;;7398654;19;20167;-75
2022/07/25 09:10:23;;;;;;;6.63;5.90;;;35.90;77.00;;;;;;7393177;19;20131;-76
2022/07/25 09:13:12;;;;;;;7.07;5.68;;;36.00;76.40;;;;;;7392648;19;20230;-75
2022/07/25 09:15:43;;;;;;;5.85;5.35;;;35.90;75.50;;;;;;7390702;19;20615;-76
2022/07/25 09:18:13;;;;;;;7.13;6.30;;;35.80;75.10;;;;;;7390911;19;20153;-75
2022/07/25 09:20:46;;;;;;;6.60;5.90;;;35.90;75.20;;;;;;7391453;19;20141;-75
2022/07/25 09:23:37;;;;;;;6.45;5.82;;;35.90;75.40;;;;;;7391426;19;20146;-76
2022/07/25 09:26:03;;;;;;;5.40;4.90;;;35.60;75.30;;;;;;7389075;19;20150;-75
2022/07/25 09:28:29;;;;;;;5.53;5.03;;;35.20;74.20;;;;;;7390402;19;20165;-75
2022/07/25 09:30:57;;;;;;;7.60;6.65;;;35.00;74.70;;;;;;7389841;19;20163;-75
2022/07/25 09:33:24;;;;;;;5.90;5.30;;;35.00;75.80;;;;;;7390582;19;20171;-75
2022/07/25 09:35:51;;;;;;;7.07;5.60;;;35.00;75.90;;;;;;7391846;19;20142;-76
2022/07/25 09:38:18;;;;;;;6.57;5.53;;;35.00;75.50;;;;;;7391002;19;20975;-75
2022/07/25 09:40:56;;;;;;;5.35;4.85;;;34.90;75.40;;;;;;7400058;19;20467;-74
2022/07/25 09:43:23;;;;;;;5.63;5.13;;;34.90;75.70;;;;;;7392239;19;20595;-75
2022/07/25 09:45:50;;;;;;;5.10;4.60;;;34.70;74.70;;;;;;7389351;19;20146;-75
2022/07/25 09:48:18;;;;;;;5.22;4.72;;;34.40;76.30;;;;;;7389491;19;20138;-74
2022/07/25 09:50:44;;;;;;;6.15;5.20;;;34.70;75.40;;;;;;7388527;19;20162;-73
2022/07/25 09:53:11;;;;;;;7.60;5.38;;;34.70;75.30;;;;;;7388442;19;20135;-74
2022/07/25 09:55:36;;;;;;;7.68;4.93;;;34.70;75.70;;;;;;7392350;19;20134;-72
2022/07/25 09:58:03;;;;;;;6.10;5.50;;;34.70;75.10;;;;;;7391387;19;20241;-75
2022/07/25 10:00:31;;;;;;;6.30;5.13;;;34.80;74.90;;;;;;7390344;19;20138;-75
2022/07/25 10:03:14;;;;;;;6.10;5.57;;;35.10;75.20;;;;;;7389306;19;20139;-74
2022/07/25 10:06:01;;;;;;;5.88;5.38;;;35.30;74.90;;;;;;7388821;19;20146;-76
2022/07/25 10:08:28;;;;;;;9.45;5.45;;;35.20;75.30;;;;;;7392196;19;20164;-75
2022/07/25 10:10:54;;;;;;;6.43;5.72;;;34.70;75.50;;;;;;7384162;19;20139;-75
2022/07/25 10:13:33;;;;;;;8.52;5.95;;;34.30;76.40;;;;;;7390670;19;20180;-75
2022/07/25 10:15:59;;;;;;;6.32;5.72;;;34.00;76.80;;;;;;7385607;19;20585;-74
2022/07/25 10:18:27;;;;;;;8.93;5.72;;;33.70;77.30;;;;;;7390284;19;20959;-75
2022/07/25 10:20:55;;;;;;;6.22;5.72;;;33.50;79.20;;;;;;7384951;19;20153;-75
2022/07/25 10:23:26;;;;;;;6.53;5.95;;;33.50;78.50;;;;;;7388677;19;20143;-75
2022/07/25 10:26:19;;;;;;;8.07;6.00;;;33.50;78.40;;;;;;7396933;19;20189;-75
2022/07/25 10:28:47;;;;;;;7.45;5.90;;;33.40;78.60;;;;;;7394860;19;20391;-76
2022/07/25 10:31:18;;;;;;;6.15;5.60;;;33.40;78.50;;;;;;7384273;19;20141;-75
2022/07/25 10:33:49;;;;;;;6.55;5.85;;;33.40;78.70;;;;;;7387797;19;20157;-76
2022/07/25 10:36:15;;;;;;;6.10;5.50;;;33.30;78.50;;;;;;7387323;19;20127;-77
2022/07/25 10:38:43;;;;;;;6.00;5.28;;;33.30;78.60;;;;;;7386826;19;21699;-75
2022/07/25 10:41:11;;;;;;;6.05;5.45;;;33.20;78.90;;;;;;7394808;19;20144;-76
2022/07/25 10:43:39;;;;;;;6.20;5.60;;;33.20;77.90;;;;;;7385704;19;20683;-77
2022/07/25 10:46:19;;;;;;;6.60;5.57;;;33.10;77.60;;;;;;7387776;19;20663;-79
2022/07/25 10:48:57;;;;;;;6.00;5.50;;;33.20;78.20;;;;;;7389287;19;20158;-77
2022/07/25 10:51:34;;;;;;;5.38;4.88;;;33.20;78.20;;;;;;7388610;19;20214;-76
2022/07/25 10:54:15;;;;;;;5.60;5.10;;;33.20;78.40;;;;;;7384947;19;20206;-75
2022/07/25 10:56:52;;;;;;;6.25;5.65;;;33.30;77.70;;;;;;7387177;19;20131;-75
2022/07/25 10:59:37;;;;;;;6.78;5.35;;;33.50;77.30;;;;;;7391697;19;20142;-76
2022/07/25 11:02:07;;;;;;;6.18;5.57;;;33.50;76.70;;;;;;7388064;19;20144;-76
2022/07/25 11:04:33;;;;;;;5.97;5.38;;;33.50;76.60;;;;;;7387394;19;20540;-75
2022/07/25 11:07:14;;;;;;;6.85;5.47;;;33.40;76.70;;;;;;7383905;19;20640;-75
2022/07/25 11:09:42;;;;;;;6.28;5.40;;;33.40;76.40;;;;;;7385022;19;20171;-75
2022/07/25 11:12:13;;;;;;;5.95;4.88;;;33.40;76.30;;;;;;7386425;19;20509;-76
2022/07/25 11:14:41;;;;;;;6.55;5.35;;;33.40;75.70;;;;;;7389681;19;20552;-75
2022/07/25 11:17:22;;;;;;;5.60;5.10;;;33.30;75.80;;;;;;7386704;19;20152;-76
2022/07/25 11:20:07;;;;;;;5.25;4.75;;;33.30;75.50;;;;;;7387489;19;20134;-77
2022/07/25 11:22:34;;;;;;;5.45;4.95;;;33.30;75.70;;;;;;7385094;19;20171;-75
2022/07/25 11:25:01;;;;;;;4.47;4.07;;;33.20;77.00;;;;;;7388577;19;20130;-76
2022/07/25 11:27:30;;;;;;;13.77;5.53;;;33.20;75.90;;;;;;7385774;19;20810;-76
2022/07/25 11:30:09;;;;;;;7.75;4.85;;;33.20;76.40;;;;;;7401921;19;20138;-76
2022/07/25 11:32:56;;;;;;;5.05;4.20;;;33.10;75.30;;;;;;7391798;19;20480;-75
2022/07/25 11:35:25;;;;;;;5.53;4.28;;;33.20;75.10;;;;;;7387466;19;20154;-76
2022/07/25 11:37:52;;;;;;;5.15;4.38;;;33.40;74.20;;;;;;7387108;19;20139;-76
2022/07/25 11:40:19;;;;;;;4.50;4.10;;;33.50;74.00;;;;;;7386701;19;20501;-76
2022/07/25 11:42:47;;;;;;;5.25;4.63;;;33.60;74.80;;;;;;7384006;19;20146;-76
2022/07/25 11:45:27;;;;;;;4.65;4.25;;;33.70;74.10;;;;;;7385809;19;20210;-76
2022/07/25 11:48:06;;;;;;;4.75;4.28;;;33.80;73.30;;;;;;7386851;19;20134;-75
2022/07/25 11:50:34;;;;;;;4.82;4.40;;;33.80;73.80;;;;;;7387757;19;20175;-76
2022/07/25 11:53:06;;;;;;;6.20;4.45;;;33.70;73.90;;;;;;7383950;19;20150;-77
2022/07/25 11:55:39;;;;;;;5.78;5.20;;;33.90;74.20;;;;;;7386700;19;20234;-79
2022/07/25 11:58:05;;;;;;;4.90;4.38;;;34.10;74.00;;;;;;7382345;19;20231;-77
2022/07/25 12:00:50;;;;;;;5.03;4.20;;;34.10;72.90;;;;;;7388391;19;20151;-75
2022/07/25 12:03:21;;;;;;;4.50;4.10;;;34.10;72.30;;;;;;7384203;19;20154;-74
2022/07/25 12:05:48;;;;;;;4.78;4.28;;;34.10;72.20;;;;;;7385343;19;20150;-74
2022/07/25 12:08:16;;;;;;;5.65;5.15;;;34.20;72.20;;;;;;7393081;19;20126;-75
2022/07/25 12:10:43;;;;;;;5.43;4.93;;;34.10;72.90;;;;;;7393015;19;20143;-75
2022/07/25 12:13:20;;;;;;;5.20;3.88;;;34.20;72.60;;;;;;7394693;19;20162;-75
2022/07/25 12:15:46;;;;;;;4.80;4.40;;;34.30;72.00;;;;;;7391533;19;20145;-77
2022/07/25 12:18:12;;;;;;;4.72;4.25;;;34.20;71.40;;;;;;7392853;19;20147;-75
2022/07/25 12:20:41;;;;;;;7.20;4.22;;;34.10;72.20;;;;;;7390893;19;20234;-76
2022/07/25 12:23:09;;;;;;;4.72;4.25;;;34.00;71.40;;;;;;7390162;19;20209;-76
2022/07/25 12:25:41;;;;;;;4.75;4.18;;;34.10;71.40;;;;;;7391315;19;20241;-76
2022/07/25 12:28:07;;;;;;;4.18;3.78;;;34.10;71.90;;;;;;7391349;19;20158;-75
2022/07/25 12:30:47;;;;;;;4.93;4.45;;;34.10;71.10;;;;;;7389560;19;20176;-76
2022/07/25 12:33:13;;;;;;;4.93;4.20;;;34.20;72.30;;;;;;7394854;19;20137;-76
2022/07/25 12:35:40;;;;;;;4.93;3.70;;;34.30;71.60;;;;;;7392960;19;20135;-75
2022/07/25 12:38:06;;;;;;;4.93;4.53;;;34.40;71.90;;;;;;7390991;19;20134;-77
2022/07/25 12:40:32;;;;;;;4.55;3.63;;;34.50;71.10;;;;;;7393222;19;20468;-76
2022/07/25 12:42:58;;;;;;;4.18;3.78;;;34.50;70.60;;;;;;7392153;19;20154;-76
2022/07/25 12:45:24;;;;;;;4.72;4.15;;;34.40;70.50;;;;;;7390559;19;20134;-77
2022/07/25 12:47:50;;;;;;;9.52;7.28;;;34.20;71.00;;;;;;7389540;19;20146;-76
2022/07/25 12:50:17;;;;;;;7.20;4.90;;;34.10;71.70;;;;;;7390246;19;20146;-77